Language selection

Weather shortcuts

Southeastern Grand Banks: Past 24 Hour Conditions

 

East Chedabucto Bay - 44488

05:00 AM AST 25 February 2024Buoy position: 45.45N 60.95W
Disclaimer

This table is a summary of hourly weather conditions for the past 24 hours.
Please note that these observations might not always be representative of weather conditions over their associated marine area.

Date / Time
(AST)
Wind(knots) Wave height(m) Wave period(s) Pressure(kPa) Air tempC) Water tempC)
25 February 2024
5:00 NW 24 gusts 29 1.60 8.1 100.9 -7 1
4:00 NW 23 gusts 28 1.52 7.1 100.8 -7 1
3:00 NNW 25 gusts 30 1.42 7.8 100.7 -5 1
2:00 NW 22 gusts 29 1.41 7.7 100.5 -3 1
1:00 NNW 21 gusts 26 1.29 7.3 100.3 -3 1
0:00 NNW 23 gusts 28 1.38 7.1 100.1 -3 1
24 February 2024
23:00 NNW 23 gusts 30 1.48 7.1 99.9 -2 1
22:00 NNW 23 gusts 31 1.56 6.6 99.8 -2 1
21:00 N/A 1.78 8.1 99.5 -2 1
20:00 N/A 1.97 8.2 99.3 -1 1
19:00 N/A 2.10 8.1 99.1 -1 1
18:00 NNW 18 gusts 24 2.13 8.4 98.9 0 1
17:00 NNW 20 gusts 26 2.25 7.9 98.8 0 1
16:00 NW 16 gusts 21 2.51 7.6 98.8 2 1
15:00 SSW 23 gusts 29 2.71 7.3 98.6 6 1
14:00 SSW 29 gusts 36 2.46 7.0 98.7 6 1
13:00 S 28 gusts 32 2.42 7.3 98.8 5 1
12:00 S 24 gusts 29 2.24 7.1 99.0 5 1
11:00 S 26 gusts 31 2.22 7.2 99.2 5 1
10:00 SSW 22 gusts 26 1.96 7.2 99.4 5 1
9:00 SSW 23 gusts 28 2.00 7.5 99.5 5 1
8:00 SSW 20 gusts 26 1.99 7.3 99.6 5 1
7:00 SSW 22 gusts 28 1.82 6.8 99.5 5 1
6:00 SSW 21 gusts 28 1.80 7.4 99.6 5 1
5:00 SW 14 gusts 17 1.89 7.6 99.8 4 1

Zoom-in to make a selection

Map of Atlantic - Newfoundland marine weather areas Banquereau - 44139 East Chedabucto Bay – 44488 West Chedabucto Bay – 44489 Blanc-Sablon Airport Cap Whittle Chevery Natashquan Airport Heath Point Îles de la Madeleine Airport Miscou Island Eskasoni (First Nations) Grand Étang Ingonish Beach North Mountain St.Paul Island J.A. Douglas McCurdy Sydney Airport Charlottetown Airport East Point North Cape Argentia Berry Hill Bonavista Burgeo Cape Race Corner Brook Daniel's Harbour Englee Ferolle Point La Scie Port aux Basques Sagona Island St. Anthony Airport St. John's Int'l Airport St. Lawrence Stephenville Airport Twillingate Winterland Branch Hill Wreckhouse Grates Cove Pool's Island Marticot Island Long Pond Cartwright Airport Mary's Harbour
Legend:
buoy Buoy
land station Land Station

Atlantic - Newfoundland Area

Another Region

Date modified: